createdAt,value
2024-04-30T04:08:27.275Z,600.00
2024-04-30T04:09:27.239Z,600.00
2024-04-30T04:10:27.298Z,600.00
2024-04-30T04:11:27.322Z,600.00
2024-04-30T04:12:27.261Z,600.00
2024-04-30T04:13:27.352Z,599.00
2024-04-30T04:14:27.290Z,604.00
2024-04-30T04:15:27.284Z,601.00
2024-04-30T04:16:27.280Z,599.00
2024-04-30T04:17:27.347Z,600.00
2024-04-30T04:18:27.347Z,600.00
2024-04-30T04:19:27.288Z,600.00
2024-04-30T04:20:27.288Z,603.00
2024-04-30T04:21:27.287Z,609.00
2024-04-30T04:22:27.321Z,600.00
2024-04-30T04:23:27.281Z,602.00
2024-04-30T04:24:27.282Z,600.00
2024-04-30T04:25:27.297Z,600.00
2024-04-30T04:26:27.285Z,609.00
2024-04-30T04:27:27.291Z,607.00
2024-04-30T04:28:27.312Z,616.00
2024-04-30T04:29:27.323Z,608.00
2024-04-30T04:30:27.285Z,602.00
2024-04-30T04:31:34.526Z,600.00
2024-04-30T04:32:34.593Z,600.00
2024-04-30T04:33:34.452Z,600.00
2024-04-30T04:34:34.552Z,600.00
2024-04-30T04:35:34.453Z,600.00
2024-04-30T04:36:34.445Z,600.00
2024-04-30T04:37:34.450Z,614.00
2024-04-30T04:38:34.488Z,611.00
2024-04-30T04:39:34.440Z,616.00
2024-04-30T04:40:34.499Z,613.00
2024-04-30T04:41:34.464Z,614.00
2024-04-30T04:42:34.456Z,624.00
2024-04-30T04:43:34.472Z,631.00
2024-04-30T04:44:34.457Z,628.00
2024-04-30T04:45:34.456Z,639.00
2024-04-30T04:46:34.522Z,649.00
2024-04-30T04:47:34.534Z,649.00
2024-04-30T04:48:34.573Z,639.00
2024-04-30T04:49:34.487Z,635.00
2024-04-30T04:50:34.459Z,632.00
2024-04-30T04:51:34.471Z,639.00
2024-04-30T04:52:34.565Z,648.00
2024-04-30T04:53:34.456Z,652.00
2024-04-30T04:54:34.459Z,637.00
2024-04-30T04:55:34.483Z,623.00
2024-04-30T04:56:34.552Z,618.00
2024-04-30T04:57:34.455Z,631.00
2024-04-30T04:58:34.535Z,611.00
2024-04-30T04:59:34.475Z,617.00
2024-04-30T05:00:34.484Z,605.00
2024-04-30T05:01:34.506Z,629.00
2024-04-30T05:02:34.505Z,601.00
2024-04-30T05:03:34.512Z,625.00
2024-04-30T05:04:34.528Z,623.00
2024-04-30T05:05:34.455Z,613.00
2024-04-30T05:06:34.445Z,608.00
2024-04-30T05:07:34.542Z,603.00
2024-04-30T05:08:34.465Z,603.00
2024-04-30T05:09:34.450Z,600.00
2024-04-30T05:10:34.608Z,618.00
2024-04-30T05:11:34.497Z,612.00
2024-04-30T05:12:35.496Z,613.00
2024-04-30T05:13:34.584Z,615.00
2024-04-30T05:14:34.469Z,617.00
2024-04-30T05:15:34.485Z,628.00
2024-04-30T05:16:34.539Z,636.00
2024-04-30T05:17:34.605Z,647.00
2024-04-30T05:18:34.480Z,659.00
2024-04-30T05:19:34.760Z,672.00
2024-04-30T05:20:34.507Z,668.00
2024-04-30T05:21:34.491Z,666.00
2024-04-30T05:22:34.614Z,672.00
2024-04-30T05:23:34.515Z,660.00
2024-04-30T05:24:34.475Z,673.00
2024-04-30T05:25:34.544Z,678.00
2024-04-30T05:26:34.473Z,678.00
2024-04-30T05:27:34.492Z,672.00
2024-04-30T05:28:34.643Z,697.00
2024-04-30T05:29:34.484Z,706.00
2024-04-30T05:30:34.470Z,717.00
2024-04-30T05:31:34.570Z,765.00
2024-04-30T05:32:34.536Z,774.00
2024-04-30T05:33:34.704Z,789.00
2024-04-30T05:34:34.565Z,808.00
2024-04-30T05:35:34.498Z,825.00
2024-04-30T05:36:34.481Z,848.00
2024-04-30T05:37:34.565Z,904.00
2024-04-30T05:38:34.487Z,931.00
2024-04-30T05:39:34.481Z,966.00
2024-04-30T05:40:34.516Z,965.00
2024-04-30T05:41:34.485Z,1018.00
2024-04-30T05:42:34.532Z,1035.00
2024-04-30T05:43:34.541Z,1039.00
2024-04-30T05:44:34.476Z,1114.00
2024-04-30T05:45:34.507Z,1141.00
2024-04-30T05:46:34.535Z,1248.00
2024-04-30T05:47:34.510Z,1281.00
2024-04-30T05:48:34.486Z,1303.00
2024-04-30T05:49:34.722Z,1347.00
2024-04-30T05:50:34.517Z,1418.00
2024-04-30T05:51:34.526Z,1441.00
2024-04-30T05:52:34.678Z,1476.00
2024-04-30T05:53:34.531Z,1508.00
2024-04-30T05:54:34.568Z,1521.00
2024-04-30T05:55:34.673Z,1541.00
2024-04-30T05:56:34.708Z,1583.00
2024-04-30T05:57:34.804Z,1583.00
2024-04-30T05:58:34.974Z,1641.00
2024-04-30T05:59:34.909Z,1735.00
2024-04-30T06:00:34.989Z,1809.00
2024-04-30T06:01:35.027Z,1883.00
2024-04-30T06:02:35.090Z,1939.00
2024-04-30T06:03:35.176Z,1987.00
2024-04-30T06:04:35.301Z,2037.00
2024-04-30T06:05:35.335Z,2127.00
2024-04-30T06:06:35.237Z,2200.00
2024-04-30T06:07:35.306Z,2279.00
2024-04-30T06:08:37.307Z,2300.00
2024-04-30T06:09:35.281Z,2305.00
2024-04-30T06:10:35.322Z,2367.00
2024-04-30T06:11:35.360Z,2529.00
2024-04-30T06:12:36.095Z,2722.00
2024-04-30T06:13:35.406Z,2947.00
2024-04-30T06:14:35.289Z,2966.00
2024-04-30T06:15:35.289Z,2973.00
2024-04-30T06:16:35.347Z,2934.00
2024-04-30T06:17:35.350Z,2848.00
2024-04-30T06:18:35.342Z,2729.00
2024-04-30T06:19:35.421Z,2659.00
2024-04-30T06:20:35.311Z,2600.00
2024-04-30T06:21:38.406Z,2547.00
2024-04-30T06:22:35.391Z,2544.00
2024-04-30T06:23:35.304Z,2506.00
2024-04-30T06:24:35.315Z,2491.00
2024-04-30T06:25:35.386Z,2483.00
2024-04-30T06:26:35.317Z,2494.00
2024-04-30T06:27:35.290Z,2495.00
2024-04-30T06:28:35.341Z,2479.00
2024-04-30T06:29:35.303Z,2465.00
2024-04-30T06:30:35.323Z,2445.00
2024-04-30T06:31:35.354Z,2444.00
2024-04-30T06:32:35.411Z,2436.00
2024-04-30T06:33:35.412Z,2414.00
2024-04-30T06:34:35.356Z,2398.00
2024-04-30T06:35:35.297Z,2398.00
2024-04-30T06:36:35.323Z,2378.00
2024-04-30T06:37:35.341Z,2346.00
2024-04-30T06:38:35.330Z,2311.00
2024-04-30T06:39:35.332Z,2306.00
2024-04-30T06:40:35.335Z,2287.00
2024-04-30T06:41:35.344Z,2298.00
2024-04-30T06:42:35.339Z,2318.00
2024-04-30T06:43:35.408Z,2323.00
2024-04-30T06:44:35.341Z,2309.00
2024-04-30T06:45:35.345Z,2348.00
2024-04-30T06:46:35.361Z,2389.00
2024-04-30T06:47:35.373Z,2374.00
2024-04-30T06:48:35.433Z,2321.00
2024-04-30T06:49:35.356Z,2268.00
2024-04-30T06:50:35.323Z,2243.00
2024-04-30T06:51:35.318Z,2196.00
2024-04-30T06:52:35.399Z,2154.00
2024-04-30T06:53:35.461Z,2131.00
2024-04-30T06:54:35.357Z,2121.00
2024-04-30T06:55:35.518Z,2060.00
2024-04-30T06:56:35.353Z,2027.00
2024-04-30T06:57:35.365Z,1986.00
2024-04-30T06:58:35.436Z,1942.00
2024-04-30T06:59:35.389Z,1929.00
2024-04-30T07:00:35.377Z,1919.00
2024-04-30T07:01:35.423Z,1887.00
2024-04-30T07:02:35.364Z,1838.00
2024-04-30T07:03:35.386Z,1812.00
2024-04-30T07:04:35.477Z,1785.00
2024-04-30T07:05:35.377Z,1746.00
2024-04-30T07:06:35.404Z,1714.00
2024-04-30T07:07:35.528Z,1676.00
2024-04-30T07:08:35.380Z,1660.00
2024-04-30T07:09:35.406Z,1633.00
2024-04-30T07:10:35.416Z,1629.00
2024-04-30T07:11:35.434Z,1600.00
2024-04-30T07:12:35.364Z,1578.00
2024-04-30T07:13:37.169Z,1559.00
2024-04-30T07:14:35.395Z,1555.00
2024-04-30T07:15:35.355Z,1548.00
2024-04-30T07:16:35.388Z,1543.00
2024-04-30T07:17:35.426Z,1538.00
2024-04-30T07:18:35.673Z,1530.00
2024-04-30T07:19:35.608Z,1513.00
2024-04-30T07:20:35.390Z,1501.00
2024-04-30T07:21:35.365Z,1481.00
2024-04-30T07:22:35.469Z,1478.00
2024-04-30T07:23:35.370Z,1432.00
2024-04-30T07:24:35.385Z,1427.00
2024-04-30T07:25:35.391Z,1410.00
2024-04-30T07:26:35.384Z,1403.00
2024-04-30T07:27:35.388Z,1401.00
2024-04-30T07:28:35.533Z,1406.00
2024-04-30T07:29:35.479Z,1381.00
2024-04-30T07:30:35.512Z,1361.00
2024-04-30T07:31:37.622Z,1333.00
2024-04-30T07:32:35.610Z,1333.00
2024-04-30T07:33:35.634Z,1328.00
2024-04-30T07:34:35.645Z,1337.00
2024-04-30T07:35:35.555Z,1343.00
2024-04-30T07:36:35.557Z,1364.00
2024-04-30T07:37:35.581Z,1372.00
2024-04-30T07:38:35.568Z,1367.00
2024-04-30T07:39:35.575Z,1363.00
2024-04-30T07:40:35.628Z,1380.00
2024-04-30T07:41:35.590Z,1386.00
2024-04-30T07:42:35.553Z,1394.00
2024-04-30T07:43:35.652Z,1390.00
2024-04-30T07:44:35.607Z,1418.00
2024-04-30T07:45:35.600Z,1424.00
2024-04-30T07:46:35.691Z,1443.00
2024-04-30T07:47:35.641Z,1450.00
2024-04-30T07:48:35.616Z,1480.00
2024-04-30T07:49:35.700Z,1487.00
2024-04-30T07:50:35.594Z,1509.00
2024-04-30T07:51:35.580Z,1494.00
2024-04-30T07:52:35.761Z,1540.00
2024-04-30T07:53:35.602Z,1578.00
2024-04-30T07:54:35.597Z,1611.00
2024-04-30T07:55:35.727Z,1553.00
2024-04-30T07:56:35.606Z,1536.00
2024-04-30T07:57:35.586Z,1536.00
2024-04-30T07:58:35.663Z,1528.00
2024-04-30T07:59:35.605Z,1525.00
2024-04-30T08:00:35.605Z,1521.00
2024-04-30T08:01:35.632Z,1495.00
2024-04-30T08:02:35.671Z,1517.00
2024-04-30T08:03:35.623Z,1499.00
2024-04-30T08:04:35.647Z,1495.00
2024-04-30T08:05:42.744Z,1484.00
2024-04-30T08:06:36.627Z,1483.00
2024-04-30T08:07:35.724Z,1415.00
2024-04-30T08:08:35.610Z,1396.00
2024-04-30T08:09:35.618Z,1389.00
2024-04-30T08:10:35.658Z,1369.00
2024-04-30T08:11:35.646Z,1388.00
2024-04-30T08:12:35.628Z,1325.00
2024-04-30T08:13:35.668Z,1307.00
2024-04-30T08:14:37.135Z,1293.00
2024-04-30T08:15:35.629Z,1244.00
2024-04-30T08:16:35.744Z,1179.00
2024-04-30T08:17:35.774Z,1165.00
2024-04-30T08:18:35.721Z,1057.00
2024-04-30T08:19:35.719Z,1025.00
2024-04-30T08:20:35.747Z,974.00
2024-04-30T08:21:35.789Z,971.00
2024-04-30T08:22:35.789Z,946.00
2024-04-30T08:23:35.795Z,911.00
2024-04-30T08:24:35.850Z,908.00
2024-04-30T08:25:36.009Z,879.00
2024-04-30T08:26:35.897Z,886.00
2024-04-30T08:27:35.948Z,895.00
2024-04-30T08:28:36.105Z,881.00
2024-04-30T08:29:36.054Z,858.00
2024-04-30T08:30:36.097Z,856.00
2024-04-30T08:31:36.155Z,854.00
2024-04-30T08:32:36.178Z,838.00
2024-04-30T08:33:36.412Z,808.00
2024-04-30T08:34:36.292Z,839.00
2024-04-30T08:35:36.300Z,871.00
2024-04-30T08:36:36.405Z,913.00
2024-04-30T08:37:40.414Z,934.00
2024-04-30T08:38:37.381Z,934.00
2024-04-30T08:39:36.365Z,927.00
2024-04-30T08:40:36.414Z,944.00
2024-04-30T08:41:36.376Z,979.00
2024-04-30T08:42:36.377Z,1073.00
2024-04-30T08:43:36.399Z,1102.00
2024-04-30T08:44:36.400Z,1053.00
2024-04-30T08:45:36.394Z,1098.00
2024-04-30T08:46:36.473Z,1042.00
2024-04-30T08:47:36.463Z,1037.00
2024-04-30T08:48:36.403Z,993.00
2024-04-30T08:49:46.248Z,862.00
2024-04-30T08:50:37.427Z,726.00
2024-04-30T08:51:36.402Z,623.00
2024-04-30T08:52:36.423Z,617.00
2024-04-30T08:53:36.387Z,631.00
2024-04-30T08:54:36.419Z,639.00
2024-04-30T08:55:36.513Z,679.00
2024-04-30T08:56:36.397Z,692.00
2024-04-30T08:57:36.404Z,669.00
2024-04-30T08:58:36.489Z,702.00
2024-04-30T08:59:36.424Z,749.00
2024-04-30T09:00:36.430Z,739.00
2024-04-30T09:01:36.425Z,736.00
2024-04-30T09:02:36.582Z,665.00
2024-04-30T09:03:36.532Z,660.00
2024-04-30T09:04:36.653Z,648.00
2024-04-30T09:05:36.647Z,614.00
2024-04-30T09:06:36.686Z,607.00
2024-04-30T09:07:37.020Z,618.00
2024-04-30T09:08:36.751Z,645.00
2024-04-30T09:09:36.786Z,665.00
2024-04-30T09:10:36.866Z,646.00
2024-04-30T09:11:36.911Z,617.00
2024-04-30T09:12:36.883Z,634.00
2024-04-30T09:13:37.089Z,654.00
2024-04-30T09:14:36.920Z,654.00
2024-04-30T09:15:36.917Z,660.00
2024-04-30T09:16:37.015Z,676.00
2024-04-30T09:17:36.984Z,701.00
2024-04-30T09:18:36.951Z,714.00
2024-04-30T09:19:37.010Z,657.00
2024-04-30T09:20:37.035Z,620.00
2024-04-30T09:21:37.096Z,608.00
2024-04-30T09:22:37.092Z,601.00
2024-04-30T09:23:37.085Z,603.00
2024-04-30T09:24:37.102Z,601.00
2024-04-30T09:25:37.364Z,611.00
2024-04-30T09:26:37.217Z,642.00
2024-04-30T09:27:37.218Z,655.00
2024-04-30T09:28:37.358Z,668.00
2024-04-30T09:29:38.401Z,668.00
2024-04-30T09:30:37.237Z,728.00
2024-04-30T09:31:37.465Z,699.00
2024-04-30T09:32:37.351Z,696.00
2024-04-30T09:33:37.405Z,688.00
2024-04-30T09:34:37.337Z,707.00
2024-04-30T09:35:37.320Z,693.00
2024-04-30T09:36:37.412Z,634.00
2024-04-30T09:37:37.462Z,606.00
2024-04-30T09:38:37.384Z,600.00
2024-04-30T09:39:37.392Z,599.00
2024-04-30T09:40:37.658Z,608.00
2024-04-30T09:41:37.480Z,639.00
2024-04-30T09:42:40.954Z,561.00
2024-04-30T09:43:37.655Z,585.00
2024-04-30T09:44:37.584Z,642.00
2024-04-30T09:45:37.615Z,620.00
2024-04-30T09:46:37.760Z,600.00
2024-04-30T09:47:37.626Z,598.00
2024-04-30T09:48:37.588Z,619.00
2024-04-30T09:49:37.678Z,658.00
2024-04-30T09:50:37.611Z,720.00
2024-04-30T09:51:37.946Z,823.00
2024-04-30T09:52:37.689Z,936.00
2024-04-30T09:53:37.606Z,1006.00
2024-04-30T09:54:37.620Z,1109.00
2024-04-30T09:55:37.909Z,1174.00
2024-04-30T09:56:37.597Z,1225.00
2024-04-30T09:57:37.618Z,1248.00
2024-04-30T09:58:37.704Z,1255.00
2024-04-30T09:59:37.634Z,1279.00
2024-04-30T10:00:37.657Z,1287.00
2024-04-30T10:01:37.656Z,1246.00
2024-04-30T10:02:37.634Z,1073.00
2024-04-30T10:03:37.624Z,1090.00
2024-04-30T10:04:37.652Z,1072.00
2024-04-30T10:05:37.615Z,1045.00
2024-04-30T10:06:37.631Z,1103.00
2024-04-30T10:07:37.651Z,1124.00
2024-04-30T10:08:37.622Z,1098.00
2024-04-30T10:09:37.647Z,1113.00
2024-04-30T10:10:37.654Z,1141.00
2024-04-30T10:11:37.655Z,1150.00
2024-04-30T10:12:37.632Z,1116.00
2024-04-30T10:13:37.634Z,1078.00
2024-04-30T10:14:37.650Z,993.00
2024-04-30T10:15:37.648Z,1022.00
2024-04-30T10:16:37.650Z,1008.00
2024-04-30T10:17:37.784Z,1049.00
2024-04-30T10:18:37.643Z,1062.00
2024-04-30T10:19:37.691Z,1087.00
2024-04-30T10:20:37.635Z,1129.00
2024-04-30T10:21:37.686Z,942.00
2024-04-30T10:22:37.700Z,922.00
2024-04-30T10:23:37.663Z,975.00
2024-04-30T10:24:37.658Z,999.00
2024-04-30T10:25:37.679Z,1017.00
2024-04-30T10:26:37.653Z,1027.00
2024-04-30T10:27:37.663Z,1006.00
2024-04-30T10:28:37.736Z,1017.00
2024-04-30T10:29:37.646Z,1041.00
2024-04-30T10:30:37.659Z,1053.00
2024-04-30T10:31:37.812Z,1112.00
2024-04-30T10:32:37.868Z,1138.00
2024-04-30T10:33:37.942Z,1093.00
2024-04-30T10:34:38.019Z,1126.00
2024-04-30T10:35:38.032Z,1169.00
2024-04-30T10:36:38.103Z,1156.00
2024-04-30T10:37:38.254Z,1181.00
2024-04-30T10:38:38.221Z,1167.00
2024-04-30T10:39:38.274Z,1105.00
2024-04-30T10:40:38.505Z,995.00
2024-04-30T10:41:38.413Z,936.00
2024-04-30T10:42:38.433Z,839.00
2024-04-30T10:43:38.631Z,783.00
2024-04-30T10:44:38.613Z,793.00
2024-04-30T10:45:38.653Z,777.00
2024-04-30T10:46:38.760Z,768.00
2024-04-30T10:47:38.844Z,717.00
2024-04-30T10:48:38.879Z,673.00
2024-04-30T10:49:38.955Z,656.00
2024-04-30T10:50:38.967Z,643.00
2024-04-30T10:51:39.047Z,632.00
2024-04-30T10:52:39.165Z,608.00
2024-04-30T10:53:39.179Z,600.00
2024-04-30T10:54:39.262Z,602.00
2024-04-30T10:55:39.368Z,608.00
2024-04-30T10:56:39.400Z,602.00
2024-04-30T10:57:39.428Z,600.00
2024-04-30T10:58:39.530Z,605.00
2024-04-30T10:59:39.544Z,600.00
2024-04-30T11:00:39.615Z,600.00
2024-04-30T11:01:39.684Z,600.00
2024-04-30T11:02:39.750Z,612.00
2024-04-30T11:03:39.793Z,620.00
2024-04-30T11:04:39.951Z,615.00
2024-04-30T11:05:39.949Z,608.00
2024-04-30T11:06:40.038Z,612.00
2024-04-30T11:07:40.114Z,615.00
2024-04-30T11:08:40.083Z,633.00
2024-04-30T11:09:40.168Z,650.00
2024-04-30T11:10:40.256Z,637.00
2024-04-30T11:11:40.245Z,650.00
2024-04-30T11:12:40.277Z,671.00
2024-04-30T11:13:40.406Z,710.00
2024-04-30T11:14:40.370Z,666.00
2024-04-30T11:15:40.407Z,658.00
2024-04-30T11:16:40.442Z,664.00
2024-04-30T11:17:40.561Z,621.00
2024-04-30T11:18:40.546Z,561.00
2024-04-30T11:19:40.575Z,578.00
2024-04-30T11:20:40.540Z,605.00
2024-04-30T11:21:40.561Z,618.00
2024-04-30T11:22:40.761Z,633.00
2024-04-30T11:23:40.600Z,633.00
2024-04-30T11:24:40.616Z,635.00
2024-04-30T11:25:40.619Z,637.00
2024-04-30T11:26:40.635Z,634.00
2024-04-30T11:27:40.617Z,597.00
2024-04-30T11:28:40.705Z,587.00
2024-04-30T11:29:40.890Z,620.00
2024-04-30T11:30:40.796Z,638.00
2024-04-30T11:31:40.669Z,664.00
2024-04-30T11:32:40.742Z,686.00
2024-04-30T11:33:40.652Z,662.00
2024-04-30T11:34:40.770Z,645.00
2024-04-30T11:35:40.612Z,581.00
2024-04-30T11:36:40.614Z,621.00
2024-04-30T11:37:40.635Z,645.00
2024-04-30T11:38:40.768Z,721.00
2024-04-30T11:39:40.653Z,801.00
2024-04-30T11:40:40.692Z,740.00
2024-04-30T11:41:45.823Z,740.00
2024-04-30T11:42:44.876Z,741.00
2024-04-30T11:43:40.720Z,742.00
2024-04-30T11:44:40.623Z,743.00
2024-04-30T11:45:40.641Z,753.00
2024-04-30T11:46:40.735Z,784.00
2024-04-30T11:47:40.682Z,799.00
2024-04-30T11:48:40.738Z,834.00
2024-04-30T11:49:40.803Z,844.00
2024-04-30T11:50:40.648Z,858.00
2024-04-30T11:51:40.628Z,875.00
2024-04-30T11:52:41.012Z,890.00
2024-04-30T11:53:40.715Z,892.00
2024-04-30T11:54:40.676Z,874.00
2024-04-30T11:55:40.719Z,911.00
2024-04-30T11:56:40.692Z,898.00
2024-04-30T11:57:40.661Z,960.00
2024-04-30T11:58:40.713Z,949.00
2024-04-30T11:59:40.656Z,938.00
2024-04-30T12:00:40.856Z,957.00
2024-04-30T12:01:40.679Z,929.00
2024-04-30T12:02:40.720Z,939.00
2024-04-30T12:03:40.683Z,943.00
2024-04-30T12:04:40.934Z,980.00
2024-04-30T12:05:40.732Z,1023.00
2024-04-30T12:06:40.740Z,1048.00
2024-04-30T12:07:40.815Z,1072.00
2024-04-30T12:08:40.817Z,1069.00
2024-04-30T12:09:40.846Z,1090.00
2024-04-30T12:10:40.943Z,1101.00
2024-04-30T12:11:41.023Z,1117.00
2024-04-30T12:12:40.973Z,1140.00
2024-04-30T12:13:41.047Z,1256.00
2024-04-30T12:14:41.059Z,1278.00
2024-04-30T12:15:41.108Z,1216.00
2024-04-30T12:16:43.070Z,1213.00
2024-04-30T12:17:41.260Z,1246.00
2024-04-30T12:18:41.114Z,1267.00
2024-04-30T12:19:41.210Z,1284.00
2024-04-30T12:20:41.136Z,1260.00
2024-04-30T12:21:41.137Z,1210.00
2024-04-30T12:22:41.208Z,1195.00
2024-04-30T12:23:41.137Z,1135.00
2024-04-30T12:24:41.136Z,1149.00
2024-04-30T12:25:41.183Z,1171.00
2024-04-30T12:26:41.121Z,1166.00
2024-04-30T12:27:41.144Z,1214.00
2024-04-30T12:28:41.186Z,1228.00
2024-04-30T12:29:41.138Z,1197.00
2024-04-30T12:30:41.137Z,1159.00
2024-04-30T12:31:41.343Z,1197.00
2024-04-30T12:32:41.171Z,1238.00
2024-04-30T12:33:41.261Z,1227.00
2024-04-30T12:34:41.305Z,1210.00
2024-04-30T12:35:41.159Z,1202.00
2024-04-30T12:36:41.152Z,1160.00
2024-04-30T12:37:41.196Z,1223.00
2024-04-30T12:38:41.147Z,1281.00
2024-04-30T12:39:41.148Z,1246.00
2024-04-30T12:40:41.200Z,1258.00
2024-04-30T12:41:41.171Z,1255.00
2024-04-30T12:42:41.170Z,1277.00
2024-04-30T12:43:41.171Z,1201.00
2024-04-30T12:44:41.195Z,1183.00
2024-04-30T12:45:41.153Z,1204.00
2024-04-30T12:46:41.244Z,1203.00
2024-04-30T12:47:41.245Z,1200.00
2024-04-30T12:48:41.238Z,1206.00
2024-04-30T12:49:41.335Z,1204.00
2024-04-30T12:50:41.171Z,1250.00
2024-04-30T12:51:41.171Z,1224.00
2024-04-30T12:52:41.206Z,1188.00
2024-04-30T12:53:41.152Z,1178.00
2024-04-30T12:54:41.160Z,1221.00
2024-04-30T12:55:41.207Z,1262.00
2024-04-30T12:56:41.176Z,1234.00
2024-04-30T12:57:41.203Z,1174.00
2024-04-30T12:58:41.212Z,1171.00
2024-04-30T12:59:41.191Z,1178.00
2024-04-30T13:00:41.175Z,1193.00
2024-04-30T13:01:41.207Z,1195.00
2024-04-30T13:02:41.204Z,1201.00
2024-04-30T13:03:41.184Z,1191.00
2024-04-30T13:04:41.218Z,1205.00
2024-04-30T13:05:41.178Z,1194.00
2024-04-30T13:06:41.259Z,1204.00
2024-04-30T13:07:41.235Z,1187.00
2024-04-30T13:08:41.177Z,1163.00
2024-04-30T13:09:42.551Z,1152.00
2024-04-30T13:10:41.356Z,1147.00
2024-04-30T13:11:41.222Z,1168.00
2024-04-30T13:12:41.183Z,1175.00
2024-04-30T13:13:41.304Z,1150.00
2024-04-30T13:14:41.184Z,1149.00
2024-04-30T13:15:41.165Z,1173.00
2024-04-30T13:16:41.289Z,1240.00
2024-04-30T13:17:41.215Z,1240.00
2024-04-30T13:18:41.254Z,1229.00
2024-04-30T13:19:41.219Z,1217.00
2024-04-30T13:20:41.199Z,1234.00
2024-04-30T13:21:41.232Z,1247.00
2024-04-30T13:22:41.374Z,1233.00
2024-04-30T13:23:41.335Z,1215.00
2024-04-30T13:24:41.365Z,1220.00
2024-04-30T13:25:41.505Z,1186.00
2024-04-30T13:26:41.472Z,1194.00
2024-04-30T13:27:41.503Z,1194.00
2024-04-30T13:28:41.664Z,1188.00
2024-04-30T13:29:41.613Z,1204.00
2024-04-30T13:30:41.639Z,1189.00
2024-04-30T13:31:41.748Z,1169.00
2024-04-30T13:32:41.787Z,1158.00
2024-04-30T13:33:41.768Z,1147.00
2024-04-30T13:34:41.882Z,1150.00
2024-04-30T13:35:41.842Z,1174.00
2024-04-30T13:36:41.914Z,1159.00
2024-04-30T13:37:42.138Z,1163.00
2024-04-30T13:38:41.984Z,1156.00
2024-04-30T13:39:42.099Z,1121.00
2024-04-30T13:40:42.165Z,1124.00
2024-04-30T13:41:42.127Z,1131.00
2024-04-30T13:42:42.230Z,1181.00
2024-04-30T13:43:42.258Z,1154.00
2024-04-30T13:44:42.316Z,1124.00
2024-04-30T13:45:42.324Z,1114.00
2024-04-30T13:46:42.454Z,1121.00
2024-04-30T13:47:42.481Z,1110.00
2024-04-30T13:48:42.525Z,1113.00
2024-04-30T13:49:42.629Z,1104.00
2024-04-30T13:50:42.518Z,1081.00
2024-04-30T13:51:42.597Z,1084.00
2024-04-30T13:52:42.645Z,1070.00
2024-04-30T13:53:42.674Z,1089.00
2024-04-30T13:54:42.732Z,1077.00
2024-04-30T13:55:42.827Z,1073.00
2024-04-30T13:56:42.853Z,1061.00
2024-04-30T13:57:42.860Z,1063.00
2024-04-30T13:58:43.021Z,1057.00
2024-04-30T13:59:43.015Z,1099.00
2024-04-30T14:00:43.044Z,1115.00
2024-04-30T14:01:43.171Z,1127.00
2024-04-30T14:02:43.163Z,1158.00
2024-04-30T14:03:43.174Z,1165.00
2024-04-30T14:04:43.254Z,1169.00
2024-04-30T14:05:43.227Z,1201.00
2024-04-30T14:06:43.264Z,1209.00
2024-04-30T14:07:43.383Z,1161.00
2024-04-30T14:08:43.325Z,1219.00
2024-04-30T14:09:43.396Z,1234.00
2024-04-30T14:10:43.549Z,1210.00
2024-04-30T14:11:43.470Z,1274.00
2024-04-30T14:12:43.522Z,1289.00
2024-04-30T14:13:43.619Z,1289.00
2024-04-30T14:14:43.594Z,1295.00
2024-04-30T14:15:43.611Z,1303.00
2024-04-30T14:16:43.876Z,1312.00
2024-04-30T14:17:43.707Z,1316.00
2024-04-30T14:18:43.881Z,1323.00
2024-04-30T14:19:43.862Z,1341.00
2024-04-30T14:20:43.834Z,1324.00
2024-04-30T14:21:43.836Z,1337.00
2024-04-30T14:22:44.030Z,1335.00
2024-04-30T14:23:43.955Z,1335.00
2024-04-30T14:24:43.975Z,1346.00
2024-04-30T14:25:44.379Z,1341.00
2024-04-30T14:26:44.086Z,1349.00
2024-04-30T14:27:44.149Z,1379.00
2024-04-30T14:28:44.184Z,1392.00
2024-04-30T14:29:44.212Z,1408.00
2024-04-30T14:30:44.244Z,1402.00
2024-04-30T14:31:44.355Z,1395.00
2024-04-30T14:32:44.451Z,1379.00
2024-04-30T14:33:44.402Z,1374.00
2024-04-30T14:34:44.488Z,1370.00
2024-04-30T14:35:44.487Z,1376.00
2024-04-30T14:36:44.533Z,1385.00
2024-04-30T14:37:44.621Z,1403.00
2024-04-30T14:38:44.615Z,1402.00
2024-04-30T14:39:44.662Z,1395.00
2024-04-30T14:40:44.773Z,1407.00
2024-04-30T14:41:44.755Z,1400.00
2024-04-30T14:42:44.822Z,1431.00
2024-04-30T14:43:45.824Z,1438.00
2024-04-30T14:44:44.893Z,1441.00
2024-04-30T14:45:44.960Z,1440.00
2024-04-30T14:46:45.039Z,1449.00
2024-04-30T14:47:45.848Z,1453.00
2024-04-30T14:48:45.180Z,1445.00
2024-04-30T14:49:45.396Z,1452.00
2024-04-30T14:50:45.220Z,1451.00
2024-04-30T14:51:45.251Z,1455.00
2024-04-30T14:52:45.848Z,1484.00
2024-04-30T14:53:45.357Z,1474.00
2024-04-30T14:54:45.453Z,1452.00
2024-04-30T14:55:45.456Z,1448.00
2024-04-30T14:56:45.476Z,1465.00
2024-04-30T14:57:45.549Z,1473.00
2024-04-30T14:58:45.678Z,1475.00
2024-04-30T14:59:45.680Z,1457.00
2024-04-30T15:00:45.762Z,1470.00
2024-04-30T15:01:45.847Z,1490.00
2024-04-30T15:02:45.821Z,1508.00
2024-04-30T15:03:45.855Z,1542.00
2024-04-30T15:04:45.967Z,1557.00
2024-04-30T15:05:45.933Z,1588.00
2024-04-30T15:06:45.991Z,1619.00
2024-04-30T15:07:46.087Z,1628.00
2024-04-30T15:08:46.068Z,1670.00
2024-04-30T15:09:46.162Z,1692.00
2024-04-30T15:10:46.240Z,1706.00
2024-04-30T15:11:46.191Z,1741.00
2024-04-30T15:12:46.244Z,1750.00
2024-04-30T15:13:46.323Z,1789.00
2024-04-30T15:14:46.344Z,1809.00
2024-04-30T15:15:46.352Z,1836.00
2024-04-30T15:16:47.157Z,1837.00
2024-04-30T15:17:46.538Z,1861.00
2024-04-30T15:18:46.515Z,1884.00
2024-04-30T15:19:46.620Z,1903.00
2024-04-30T15:20:46.582Z,1910.00
2024-04-30T15:21:46.667Z,1924.00
2024-04-30T15:22:46.718Z,1914.00
2024-04-30T15:23:46.748Z,1939.00
2024-04-30T15:24:46.791Z,1963.00
2024-04-30T15:25:46.881Z,1974.00
2024-04-30T15:26:46.857Z,1989.00
2024-04-30T15:27:46.889Z,2012.00
2024-04-30T15:28:46.997Z,2005.00
2024-04-30T15:29:46.995Z,2011.00
2024-04-30T15:30:47.013Z,2033.00
2024-04-30T15:31:47.836Z,2053.00
2024-04-30T15:32:47.086Z,2048.00
2024-04-30T15:33:47.321Z,2078.00
2024-04-30T15:34:47.290Z,2076.00
2024-04-30T15:35:47.152Z,2091.00
2024-04-30T15:36:47.288Z,2087.00
2024-04-30T15:37:47.347Z,2090.00
2024-04-30T15:38:47.305Z,2088.00
2024-04-30T15:39:47.404Z,2104.00
2024-04-30T15:40:47.435Z,2109.00
2024-04-30T15:41:47.377Z,2122.00
2024-04-30T15:42:47.425Z,2122.00
2024-04-30T15:43:47.503Z,2130.00
2024-04-30T15:44:47.669Z,2157.00
2024-04-30T15:45:47.548Z,2143.00
2024-04-30T15:46:47.628Z,2138.00
2024-04-30T15:47:47.713Z,2151.00
2024-04-30T15:48:47.734Z,2162.00
2024-04-30T15:49:47.805Z,2153.00
2024-04-30T15:50:47.700Z,2151.00
2024-04-30T15:51:47.752Z,2157.00
2024-04-30T15:52:47.840Z,2156.00
2024-04-30T15:53:47.804Z,2159.00
2024-04-30T15:54:47.873Z,2165.00
2024-04-30T15:55:53.655Z,2168.00
2024-04-30T15:56:54.332Z,2169.00
2024-04-30T15:57:48.922Z,2169.00
2024-04-30T15:58:48.054Z,2174.00
2024-04-30T15:59:47.914Z,2180.00
2024-04-30T16:00:47.946Z,2191.00
2024-04-30T16:01:47.968Z,2198.00
2024-04-30T16:02:47.901Z,2194.00
2024-04-30T16:03:47.912Z,2205.00
2024-04-30T16:04:47.996Z,2199.00
2024-04-30T16:05:47.904Z,2197.00
2024-04-30T16:06:47.904Z,2192.00
2024-04-30T16:07:47.937Z,2191.00
2024-04-30T16:08:47.885Z,2190.00
2024-04-30T16:09:47.967Z,2187.00
2024-04-30T16:10:48.006Z,2185.00
2024-04-30T16:11:47.932Z,2188.00
2024-04-30T16:12:47.888Z,2185.00
2024-04-30T16:13:48.009Z,2191.00
2024-04-30T16:14:47.916Z,2184.00
2024-04-30T16:15:50.361Z,2183.00
2024-04-30T16:16:47.956Z,2184.00
2024-04-30T16:17:48.820Z,2185.00
2024-04-30T16:18:48.416Z,2192.00
2024-04-30T16:19:48.019Z,2200.00
2024-04-30T16:20:47.907Z,2205.00
2024-04-30T16:21:47.908Z,2202.00